Time;durP1;ratioP1;P1;durP2;ratioP2;P2;SDS_P1;SDS_P2;PMS_P1;PMS_P2;Temp;Humidity;BMP_temperature;BMP_pressure;BME280_temperature;BME280_humidity;BME280_pressure;Samples;Min_cycle;Max_cycle;Signal;HPM_P1;HPM_P2
2022/10/02 00:02:29;;;;;;;9.98;1.92;;;11.50;99.90;;;;;;5004755;28;20053;-58
2022/10/02 00:05:04;;;;;;;9.13;1.90;;;11.50;99.90;;;;;;5010404;28;20041;-59
2022/10/02 00:07:39;;;;;;;8.52;1.55;;;11.50;99.90;;;;;;4984168;28;20145;-62
2022/10/02 00:10:20;;;;;;;8.65;1.55;;;11.50;99.90;;;;;;5005676;28;20126;-69
2022/10/02 00:12:50;;;;;;;6.38;1.17;;;11.50;99.90;;;;;;5009449;28;20057;-59
2022/10/02 00:15:21;;;;;;;15.77;2.67;;;11.50;99.90;;;;;;5026819;28;20037;-66
2022/10/02 00:17:50;;;;;;;6.90;1.38;;;11.50;99.90;;;;;;5009729;28;20611;-63
2022/10/02 00:20:21;;;;;;;15.88;1.70;;;11.50;99.90;;;;;;5000606;28;20073;-64
2022/10/02 00:23:05;;;;;;;9.02;1.48;;;11.50;99.90;;;;;;5018106;28;20049;-60
2022/10/02 00:25:40;;;;;;;6.30;1.40;;;11.60;99.90;;;;;;5029065;28;20059;-57
2022/10/02 00:28:27;;;;;;;6.53;1.10;;;11.70;99.90;;;;;;5028021;28;20064;-70
2022/10/02 00:31:22;;;;;;;4.68;1.17;;;11.70;99.90;;;;;;5011758;28;20609;-58
2022/10/02 00:33:57;;;;;;;5.60;1.10;;;11.70;99.90;;;;;;5029250;28;20033;-62
2022/10/02 00:36:29;;;;;;;6.63;1.10;;;11.80;99.90;;;;;;5008056;28;20421;-60
2022/10/02 00:38:54;;;;;;;7.78;1.10;;;11.90;99.90;;;;;;5007405;28;20183;-58
2022/10/02 00:41:26;;;;;;;4.00;1.00;;;11.90;99.90;;;;;;4989784;28;20124;-60
2022/10/02 00:43:55;;;;;;;4.07;1.00;;;12.00;99.90;;;;;;5006930;28;20056;-65
2022/10/02 00:46:26;;;;;;;5.50;1.40;;;12.00;99.90;;;;;;5004246;28;20048;-63
2022/10/02 00:49:21;;;;;;;5.88;1.25;;;12.00;99.90;;;;;;5005177;28;20041;-63
2022/10/02 00:51:46;;;;;;;3.60;1.10;;;12.00;99.90;;;;;;4977554;28;20060;-62
2022/10/02 00:54:51;;;;;;;4.38;1.33;;;12.00;99.90;;;;;;5024031;28;20045;-68
2022/10/02 00:57:45;;;;;;;6.25;1.27;;;11.90;99.90;;;;;;4976762;28;20041;-63
2022/10/02 01:00:16;;;;;;;7.72;1.30;;;11.90;99.90;;;;;;5005324;28;20049;-67
2022/10/02 01:02:57;;;;;;;14.68;1.73;;;11.90;99.90;;;;;;5006961;28;20055;-68
2022/10/02 01:05:24;;;;;;;12.43;2.15;;;11.90;99.90;;;;;;4988444;28;20081;-62
2022/10/02 01:07:53;;;;;;;22.92;4.13;;;11.80;99.90;;;;;;5002477;28;20464;-66
2022/10/02 01:10:21;;;;;;;13.68;1.98;;;11.80;99.90;;;;;;5005727;28;20049;-65
2022/10/02 01:12:51;;;;;;;10.27;1.90;;;11.80;99.90;;;;;;5006151;28;20146;-67
2022/10/02 01:15:20;;;;;;;10.60;2.30;;;11.80;99.90;;;;;;5004002;28;20042;-59
2022/10/02 01:17:49;;;;;;;14.48;2.13;;;11.80;99.90;;;;;;5002666;28;20492;-59
2022/10/02 01:20:20;;;;;;;8.15;1.88;;;11.80;99.90;;;;;;4982717;28;20095;-66
2022/10/02 01:22:51;;;;;;;11.05;2.63;;;11.80;99.90;;;;;;4989074;28;20103;-64
2022/10/02 01:25:17;;;;;;;9.02;1.90;;;11.70;99.90;;;;;;5004991;28;20124;-65
2022/10/02 01:27:43;;;;;;;10.57;2.03;;;11.70;99.90;;;;;;4989218;28;20133;-68
2022/10/02 01:30:14;;;;;;;15.73;2.35;;;11.70;99.90;;;;;;4970794;28;20041;-61
2022/10/02 01:32:55;;;;;;;14.60;3.15;;;11.70;99.90;;;;;;5005177;28;20074;-62
2022/10/02 01:35:30;;;;;;;12.30;2.20;;;11.60;99.90;;;;;;4988878;28;20081;-59
2022/10/02 01:37:58;;;;;;;15.40;2.70;;;11.60;99.90;;;;;;4988183;28;20040;-58
2022/10/02 01:40:30;;;;;;;16.55;2.30;;;11.60;99.90;;;;;;5009686;28;20553;-62
2022/10/02 01:43:15;;;;;;;19.20;2.22;;;11.60;99.90;;;;;;4991976;28;20048;-59
2022/10/02 01:45:52;;;;;;;15.82;2.53;;;11.50;99.90;;;;;;4992810;28;20042;-63
2022/10/02 01:48:21;;;;;;;12.10;2.97;;;11.50;99.90;;;;;;4992652;28;20034;-61
2022/10/02 01:51:16;;;;;;;13.47;2.53;;;11.50;99.90;;;;;;4991362;28;20038;-60
2022/10/02 01:54:02;;;;;;;11.77;1.90;;;11.50;99.90;;;;;;4962842;28;20052;-60
2022/10/02 01:56:54;;;;;;;10.05;2.00;;;11.50;99.90;;;;;;4986699;28;20485;-58
2022/10/02 01:59:30;;;;;;;16.20;2.38;;;11.40;99.90;;;;;;4966201;28;20144;-65
2022/10/02 02:02:18;;;;;;;19.67;3.13;;;11.40;99.90;;;;;;4992219;28;20034;-62
2022/10/02 02:05:17;;;;;;;12.55;2.35;;;11.40;99.90;;;;;;5001997;28;20045;-59
2022/10/02 02:07:48;;;;;;;11.00;2.53;;;11.30;99.90;;;;;;4975200;28;20053;-66
2022/10/02 02:10:23;;;;;;;8.70;1.90;;;11.30;99.90;;;;;;4976699;28;20456;-61
2022/10/02 02:13:13;;;;;;;13.93;2.10;;;11.20;99.90;;;;;;4990844;28;20053;-60
2022/10/02 02:15:46;;;;;;;9.70;2.10;;;11.20;99.90;;;;;;4991918;28;20343;-68
2022/10/02 02:18:27;;;;;;;10.00;2.10;;;11.20;99.90;;;;;;4992257;28;20129;-58
2022/10/02 02:20:57;;;;;;;11.70;2.22;;;11.10;99.90;;;;;;5000414;28;20403;-66
2022/10/02 02:23:25;;;;;;;;;;;11.10;99.90;;;;;;5017164;28;20455;-63
2022/10/02 02:25:56;;;;;;;23.50;3.35;;;11.10;99.90;;;;;;5027089;28;20287;-64
2022/10/02 02:28:24;;;;;;;9.25;2.20;;;11.10;99.90;;;;;;5011742;28;20484;-65
2022/10/02 02:30:53;;;;;;;16.80;2.60;;;11.10;99.90;;;;;;5011041;28;20571;-60
2022/10/02 02:33:38;;;;;;;17.80;3.03;;;11.10;99.90;;;;;;5004868;28;20074;-69
2022/10/02 02:36:11;;;;;;;14.18;2.03;;;11.10;99.90;;;;;;4990396;28;20053;-62
2022/10/02 02:38:43;;;;;;;17.58;2.13;;;11.10;99.90;;;;;;5010389;28;20128;-64
2022/10/02 02:41:13;;;;;;;13.07;2.42;;;11.10;99.90;;;;;;5011526;28;20046;-60
2022/10/02 02:43:49;;;;;;;18.48;2.38;;;11.10;99.90;;;;;;5010186;28;20111;-64
2022/10/02 02:46:24;;;;;;;15.25;2.25;;;11.00;99.90;;;;;;4994982;28;20049;-67
2022/10/02 02:49:07;;;;;;;12.07;2.05;;;11.00;99.90;;;;;;4995350;28;20092;-63
2022/10/02 02:51:38;;;;;;;10.95;2.13;;;11.00;99.90;;;;;;5009988;28;20051;-66
2022/10/02 02:54:14;;;;;;;10.55;2.03;;;11.00;99.90;;;;;;5028490;28;20767;-60
2022/10/02 02:56:42;;;;;;;12.27;2.40;;;11.00;99.90;;;;;;5010099;28;20064;-59
2022/10/02 02:59:11;;;;;;;21.52;2.67;;;11.00;99.90;;;;;;5027759;28;20120;-61
2022/10/02 03:01:37;;;;;;;15.10;2.20;;;11.00;99.90;;;;;;5011202;28;20491;-63
2022/10/02 03:04:02;;;;;;;14.63;2.75;;;11.10;99.90;;;;;;5009838;28;20085;-68
2022/10/02 03:06:36;;;;;;;14.15;2.15;;;11.10;99.90;;;;;;5011447;28;20059;-62
2022/10/02 03:09:06;;;;;;;7.88;2.40;;;11.10;99.90;;;;;;4995509;28;20045;-68
2022/10/02 03:11:51;;;;;;;12.38;2.03;;;11.10;99.90;;;;;;5011233;28;20500;-59
2022/10/02 03:14:37;;;;;;;18.83;2.70;;;11.10;99.90;;;;;;4994286;28;20041;-68
2022/10/02 03:17:34;;;;;;;13.07;2.50;;;11.20;99.90;;;;;;5019501;28;20042;-59
2022/10/02 03:20:11;;;;;;;12.23;2.35;;;11.20;99.90;;;;;;4999581;28;20052;-65
2022/10/02 03:23:02;;;;;;;12.38;2.22;;;11.20;99.90;;;;;;5029355;28;20072;-59
2022/10/02 03:25:32;;;;;;;23.30;2.35;;;11.30;99.90;;;;;;5029422;28;20454;-66
2022/10/02 03:28:16;;;;;;;11.25;2.28;;;11.30;99.90;;;;;;5018245;28;20046;-59
2022/10/02 03:30:43;;;;;;;17.60;3.25;;;11.40;99.90;;;;;;5009555;28;20153;-65
2022/10/02 03:33:11;;;;;;;18.77;3.05;;;11.50;99.90;;;;;;5014322;28;20559;-60
2022/10/02 03:35:38;;;;;;;9.38;1.88;;;11.60;99.90;;;;;;5029300;28;20392;-58
2022/10/02 03:38:06;;;;;;;6.60;1.30;;;11.70;99.90;;;;;;5021740;28;20095;-60
2022/10/02 03:40:33;;;;;;;23.17;3.35;;;11.60;99.90;;;;;;5010090;28;20085;-63
2022/10/02 03:42:59;;;;;;;19.73;1.95;;;11.70;99.90;;;;;;5029141;28;20095;-60
2022/10/02 03:45:26;;;;;;;13.13;2.47;;;11.70;99.90;;;;;;5024720;28;20061;-62
2022/10/02 03:47:52;;;;;;;19.17;2.42;;;11.80;99.90;;;;;;5009349;28;20053;-61
2022/10/02 03:50:18;;;;;;;9.30;2.60;;;11.80;99.90;;;;;;5030384;28;20110;-68
2022/10/02 03:52:46;;;;;;;11.65;1.85;;;11.80;99.90;;;;;;5007505;28;20123;-61
2022/10/02 03:55:17;;;;;;;11.65;2.08;;;11.80;99.90;;;;;;5013647;28;20053;-59
2022/10/02 03:57:45;;;;;;;16.40;2.10;;;11.80;99.90;;;;;;5029616;28;20124;-59
2022/10/02 04:00:18;;;;;;;11.07;1.80;;;11.80;99.90;;;;;;5012420;28;20044;-60
2022/10/02 04:02:58;;;;;;;15.13;1.90;;;11.80;99.90;;;;;;4996312;28;20049;-61
2022/10/02 04:05:46;;;;;;;18.58;2.97;;;11.80;99.90;;;;;;5009159;28;20049;-60
2022/10/02 04:08:24;;;;;;;20.15;3.58;;;11.80;99.90;;;;;;5010114;28;20045;-59
2022/10/02 04:10:57;;;;;;;14.35;2.28;;;11.80;99.90;;;;;;5029191;28;20049;-61
2022/10/02 04:13:32;;;;;;;12.90;2.00;;;11.80;99.90;;;;;;5025935;28;20127;-58
2022/10/02 04:16:13;;;;;;;18.83;2.55;;;11.80;99.90;;;;;;5013781;28;20116;-67
2022/10/02 04:18:51;;;;;;;21.65;2.42;;;11.80;99.90;;;;;;5028394;28;20120;-59
2022/10/02 04:21:43;;;;;;;15.48;2.60;;;11.80;99.90;;;;;;5025869;28;20057;-65
2022/10/02 04:24:21;;;;;;;17.75;2.33;;;11.80;99.90;;;;;;5022667;28;20057;-63
2022/10/02 04:26:53;;;;;;;10.60;1.50;;;11.80;99.90;;;;;;5017408;28;20133;-58
2022/10/02 04:29:36;;;;;;;12.98;2.25;;;11.80;99.90;;;;;;4993387;28;20044;-63
2022/10/02 04:32:26;;;;;;;15.15;1.70;;;11.80;99.90;;;;;;5000052;28;20057;-57
2022/10/02 04:34:52;;;;;;;13.25;2.15;;;11.80;99.90;;;;;;5005326;28;20111;-66
2022/10/02 04:37:53;;;;;;;17.80;2.28;;;11.80;99.90;;;;;;5026114;28;20049;-65
2022/10/02 04:40:49;;;;;;;13.57;2.22;;;11.80;99.90;;;;;;5019762;28;20164;-63
2022/10/02 04:43:26;;;;;;;12.60;2.00;;;11.80;99.90;;;;;;5008959;28;20534;-59
2022/10/02 04:46:26;;;;;;;15.88;2.17;;;11.80;99.90;;;;;;5009076;28;20075;-60
2022/10/02 04:48:54;;;;;;;;;;;11.70;99.90;;;;;;4996692;28;20165;-59
2022/10/02 04:51:26;;;;;;;16.23;2.15;;;11.80;99.90;;;;;;5026153;28;19925;-59
2022/10/02 04:53:55;;;;;;;13.40;2.30;;;11.70;99.90;;;;;;5026229;28;20045;-62
2022/10/02 04:56:39;;;;;;;16.20;2.33;;;11.80;99.90;;;;;;5025818;28;20045;-60
2022/10/02 04:59:16;;;;;;;20.98;2.55;;;11.70;99.90;;;;;;5015517;28;20083;-59
2022/10/02 05:02:20;;;;;;;13.13;2.20;;;11.70;99.90;;;;;;5007326;28;20052;-64
2022/10/02 05:04:52;;;;;;;7.95;2.13;;;11.80;99.90;;;;;;4968232;28;20165;-62
2022/10/02 05:07:29;;;;;;;21.17;2.40;;;11.80;99.90;;;;;;4972176;28;20057;-64
2022/10/02 05:10:13;;;;;;;11.05;2.33;;;11.70;99.90;;;;;;4990535;28;20065;-61
2022/10/02 05:13:17;;;;;;;17.80;2.05;;;11.70;99.90;;;;;;5026638;28;20069;-65
2022/10/02 05:16:10;;;;;;;18.98;2.55;;;11.70;99.90;;;;;;5002528;28;20428;-60
2022/10/02 05:18:46;;;;;;;13.70;2.22;;;11.70;99.90;;;;;;5024965;28;20048;-68
2022/10/02 05:21:12;;;;;;;14.48;2.47;;;11.70;99.90;;;;;;5032343;28;20061;-64
2022/10/02 05:24:06;;;;;;;10.73;2.08;;;11.70;99.90;;;;;;5010718;28;20510;-62
2022/10/02 05:26:39;;;;;;;16.20;2.22;;;11.70;99.90;;;;;;5013983;28;20052;-58
2022/10/02 05:29:18;;;;;;;12.07;1.73;;;11.60;99.90;;;;;;5012176;28;20060;-62
2022/10/02 05:32:02;;;;;;;11.98;2.45;;;11.60;99.90;;;;;;5002215;28;20519;-59
2022/10/02 05:34:50;;;;;;;15.43;3.25;;;11.60;99.90;;;;;;5028580;28;20140;-64
2022/10/02 05:37:45;;;;;;;22.10;2.55;;;11.60;99.90;;;;;;4994769;28;20045;-59
2022/10/02 05:40:16;;;;;;;19.92;2.83;;;11.60;99.90;;;;;;5000896;28;20065;-65
2022/10/02 05:43:11;;;;;;;12.05;2.13;;;11.60;99.90;;;;;;5028565;28;20065;-67
2022/10/02 05:45:42;;;;;;;16.15;2.13;;;11.60;99.90;;;;;;5027907;28;20076;-60
2022/10/02 05:48:42;;;;;;;13.85;2.28;;;11.60;99.90;;;;;;5041844;28;20048;-61
2022/10/02 05:51:39;;;;;;;21.05;2.65;;;11.60;99.90;;;;;;5028585;28;20057;-62
2022/10/02 05:54:41;;;;;;;21.23;2.65;;;11.60;99.90;;;;;;5019055;28;20049;-57
2022/10/02 05:57:19;;;;;;;26.35;2.70;;;11.60;99.90;;;;;;5009176;28;20056;-65
2022/10/02 06:00:03;;;;;;;15.05;2.15;;;11.60;99.90;;;;;;5046081;28;20076;-64
2022/10/02 06:02:38;;;;;;;15.55;2.38;;;11.60;99.90;;;;;;5001419;28;20053;-58
2022/10/02 06:05:28;;;;;;;18.00;2.40;;;11.60;99.90;;;;;;5005089;28;20500;-61
2022/10/02 06:08:01;;;;;;;21.52;2.33;;;11.60;99.90;;;;;;4997227;28;20495;-65
2022/10/02 06:10:33;;;;;;;19.55;2.83;;;11.60;99.90;;;;;;5013260;28;20394;-60
2022/10/02 06:13:10;;;;;;;17.17;2.03;;;11.60;99.90;;;;;;5027977;28;20101;-63
2022/10/02 06:15:45;;;;;;;13.20;2.03;;;11.60;99.90;;;;;;5021542;28;20128;-64
2022/10/02 06:18:18;;;;;;;23.52;3.13;;;11.60;99.90;;;;;;5009200;28;20047;-59
2022/10/02 06:20:53;;;;;;;20.20;2.22;;;11.50;99.90;;;;;;5027541;28;20789;-66
2022/10/02 06:23:45;;;;;;;14.35;2.47;;;11.60;99.90;;;;;;5044878;28;20054;-65
2022/10/02 06:26:16;;;;;;;19.35;2.92;;;11.60;99.90;;;;;;5018358;28;20053;-64
2022/10/02 06:29:06;;;;;;;12.30;2.08;;;11.60;99.90;;;;;;5010328;28;20052;-69
2022/10/02 06:32:09;;;;;;;14.40;2.60;;;11.60;99.90;;;;;;5012072;28;20064;-58
2022/10/02 06:34:35;;;;;;;12.43;2.15;;;11.70;99.90;;;;;;4960076;28;20482;-65
2022/10/02 06:37:04;;;;;;;15.88;2.15;;;11.80;99.90;;;;;;5018995;28;20041;-58
2022/10/02 06:40:12;;;;;;;28.15;3.28;;;11.90;99.90;;;;;;5018509;28;20053;-64
2022/10/02 06:43:10;;;;;;;19.38;2.00;;;12.10;99.90;;;;;;5004641;28;20522;-61
2022/10/02 06:45:52;;;;;;;16.88;2.47;;;12.30;99.90;;;;;;5011843;28;20499;-61
2022/10/02 06:48:54;;;;;;;13.38;2.38;;;12.40;99.90;;;;;;5005803;28;20042;-57
2022/10/02 06:51:31;;;;;;;22.10;2.72;;;12.60;99.90;;;;;;4971488;28;20402;-63
2022/10/02 06:54:21;;;;;;;16.35;2.38;;;12.80;99.90;;;;;;5022438;28;20099;-63
2022/10/02 06:56:53;;;;;;;16.33;2.63;;;13.00;99.90;;;;;;5030606;28;20041;-63
2022/10/02 06:59:37;;;;;;;19.55;2.90;;;13.10;99.90;;;;;;5002211;28;20081;-62
2022/10/02 07:02:17;;;;;;;23.77;3.42;;;13.20;99.90;;;;;;5018630;28;20041;-59
2022/10/02 07:04:43;;;;;;;15.38;2.50;;;13.20;99.90;;;;;;5014945;28;20121;-65
2022/10/02 07:07:32;;;;;;;18.73;2.47;;;13.10;99.90;;;;;;5029255;28;20124;-58
2022/10/02 07:10:06;;;;;;;16.63;2.30;;;13.00;99.90;;;;;;5016957;28;20124;-61
2022/10/02 07:13:01;;;;;;;16.23;2.40;;;13.00;99.90;;;;;;5014188;28;20503;-61
2022/10/02 07:15:51;;;;;;;20.98;2.30;;;13.10;99.90;;;;;;5010234;28;20060;-65
2022/10/02 07:18:20;;;;;;;;;;;13.10;99.90;;;;;;5010276;28;20041;-64
2022/10/02 07:20:55;;;;;;;20.35;3.58;;;13.10;99.90;;;;;;5007941;28;19920;-59
2022/10/02 07:23:25;;;;;;;9.63;1.83;;;12.90;99.90;;;;;;5007924;28;20049;-58
2022/10/02 07:25:57;;;;;;;;;;;12.70;99.90;;;;;;4993494;28;20037;-61
2022/10/02 07:28:38;;;;;;;9.98;1.92;;;12.70;99.90;;;;;;5007196;28;20513;-60
2022/10/02 07:31:10;;;;;;;8.23;1.80;;;12.60;99.90;;;;;;5009757;28;20047;-62
2022/10/02 07:34:28;;;;;;;14.23;2.60;;;12.60;99.90;;;;;;5007056;28;20527;-59
2022/10/02 07:37:11;;;;;;;14.80;2.33;;;12.50;99.90;;;;;;5004707;28;20037;-62
2022/10/02 07:39:56;;;;;;;14.48;2.55;;;12.50;99.90;;;;;;5010029;28;20037;-61
2022/10/02 07:42:47;;;;;;;14.18;2.20;;;12.50;99.90;;;;;;4992131;28;20053;-57
2022/10/02 07:45:19;;;;;;;12.13;2.38;;;12.50;99.90;;;;;;5026054;28;20456;-57
2022/10/02 07:48:15;;;;;;;12.52;2.78;;;12.40;99.90;;;;;;5009545;28;20045;-62
2022/10/02 07:51:45;;;;;;;13.43;2.30;;;12.40;99.90;;;;;;5002078;28;20418;-61
2022/10/02 07:54:07;;;;;;;19.48;2.42;;;12.40;99.90;;;;;;5002917;28;20053;-60
2022/10/02 07:56:35;;;;;;;16.20;2.38;;;12.40;99.90;;;;;;5006421;28;20049;-60
2022/10/02 07:59:09;;;;;;;19.17;2.45;;;12.40;99.90;;;;;;5005896;28;20053;-62
2022/10/02 08:01:40;;;;;;;11.15;2.22;;;12.40;99.90;;;;;;5009715;28;20492;-67
2022/10/02 08:04:32;;;;;;;22.55;3.50;;;12.40;99.90;;;;;;5006235;28;20049;-59
2022/10/02 08:07:01;;;;;;;14.93;2.25;;;12.50;99.90;;;;;;4988387;28;20500;-61
2022/10/02 08:09:50;;;;;;;16.52;2.78;;;12.50;99.90;;;;;;5008702;28;20381;-68
2022/10/02 08:12:19;;;;;;;16.58;2.55;;;12.60;99.90;;;;;;5002524;28;20054;-58
2022/10/02 08:14:47;;;;;;;;;;;12.80;99.90;;;;;;5002187;28;20385;-61
2022/10/02 08:17:35;;;;;;;16.10;2.33;;;12.90;99.90;;;;;;4997631;28;19928;-62
2022/10/02 08:20:14;;;;;;;16.27;2.17;;;13.20;99.90;;;;;;5003024;28;20137;-64
2022/10/02 08:22:45;;;;;;;19.70;3.33;;;13.40;99.90;;;;;;5007769;28;20579;-61
2022/10/02 08:26:04;;;;;;;22.40;2.75;;;13.60;99.90;;;;;;5004597;28;20088;-60
2022/10/02 08:28:43;;;;;;;20.02;2.72;;;13.70;99.90;;;;;;4982374;28;20056;-63
2022/10/02 08:31:13;;;;;;;17.65;2.00;;;13.80;99.90;;;;;;5006824;28;20045;-57
2022/10/02 08:33:39;;;;;;;18.67;2.42;;;13.80;99.90;;;;;;5003107;28;20045;-70
2022/10/02 08:36:32;;;;;;;14.13;2.25;;;13.90;99.90;;;;;;5006324;28;20044;-60
2022/10/02 08:39:06;;;;;;;15.05;2.67;;;14.10;99.90;;;;;;5007704;28;20495;-57
2022/10/02 08:41:50;;;;;;;13.38;2.72;;;14.40;99.90;;;;;;4988403;28;20480;-61
2022/10/02 08:44:31;;;;;;;20.63;2.42;;;14.40;99.90;;;;;;5007969;28;20053;-61
2022/10/02 08:47:32;;;;;;;20.60;2.58;;;14.50;99.90;;;;;;5002142;28;20065;-60
2022/10/02 08:50:39;;;;;;;13.63;2.58;;;14.50;99.90;;;;;;5021477;28;20053;-57
2022/10/02 08:53:23;;;;;;;16.65;2.70;;;14.50;99.90;;;;;;4995918;28;20099;-65
2022/10/02 08:56:05;;;;;;;18.27;2.47;;;14.40;99.90;;;;;;4995151;28;20050;-57
2022/10/02 08:58:53;;;;;;;18.05;2.53;;;14.40;99.90;;;;;;4997685;28;20459;-62
2022/10/02 09:01:28;;;;;;;15.00;2.55;;;14.40;99.90;;;;;;5001109;28;20603;-58
2022/10/02 09:04:15;;;;;;;13.20;2.38;;;14.40;99.90;;;;;;4991275;28;20050;-57
2022/10/02 09:06:59;;;;;;;20.85;2.45;;;14.40;99.90;;;;;;4979118;28;20103;-58
2022/10/02 09:09:59;;;;;;;16.67;2.50;;;14.50;99.90;;;;;;5004531;28;20041;-59
2022/10/02 09:12:46;;;;;;;18.08;2.65;;;14.50;99.90;;;;;;5017975;28;20042;-57
2022/10/02 09:15:25;;;;;;;17.30;2.28;;;14.60;99.90;;;;;;4998483;28;20053;-58
2022/10/02 09:18:09;;;;;;;16.77;2.55;;;14.80;99.90;;;;;;5007855;28;20055;-62
2022/10/02 09:20:47;;;;;;;14.80;2.45;;;14.80;99.90;;;;;;5006502;28;20057;-62
2022/10/02 09:23:51;;;;;;;17.33;2.70;;;14.90;99.90;;;;;;4984572;28;20048;-59
2022/10/02 09:26:36;;;;;;;15.88;2.10;;;15.00;99.90;;;;;;5002736;28;20555;-57
2022/10/02 09:29:33;;;;;;;15.82;2.70;;;15.10;99.90;;;;;;4994999;28;20107;-61
2022/10/02 09:32:23;;;;;;;14.43;2.45;;;15.20;99.90;;;;;;4990457;28;20104;-67
2022/10/02 09:35:12;;;;;;;13.60;2.50;;;15.50;99.90;;;;;;5006634;28;20053;-57
2022/10/02 09:38:13;;;;;;;8.82;2.20;;;15.60;99.90;;;;;;4990180;28;20054;-65
2022/10/02 09:40:59;;;;;;;12.77;2.10;;;15.50;99.90;;;;;;4984863;28;20053;-62
2022/10/02 09:43:30;;;;;;;7.30;1.88;;;15.50;99.90;;;;;;4993063;28;20420;-59
2022/10/02 09:46:30;;;;;;;10.45;2.22;;;15.50;99.90;;;;;;4998989;28;21557;-60
2022/10/02 09:49:18;;;;;;;13.23;1.90;;;15.50;99.90;;;;;;5009190;28;20046;-60
2022/10/02 09:52:03;;;;;;;10.93;2.70;;;15.60;99.90;;;;;;5002396;28;20125;-61
2022/10/02 09:54:29;;;;;;;8.73;2.55;;;15.50;99.90;;;;;;4993856;28;20037;-62
2022/10/02 09:57:00;;;;;;;15.80;3.10;;;15.60;99.90;;;;;;4991717;28;20457;-59
2022/10/02 09:59:54;;;;;;;12.65;2.10;;;15.60;99.90;;;;;;5019888;28;20470;-58
2022/10/02 10:02:46;;;;;;;13.20;2.25;;;15.60;99.90;;;;;;5004638;28;20108;-65
2022/10/02 10:05:54;;;;;;;18.38;2.38;;;15.70;99.90;;;;;;5023421;28;20045;-58
2022/10/02 10:08:33;;;;;;;12.57;2.33;;;15.80;99.90;;;;;;4946897;28;20062;-65
2022/10/02 10:11:32;;;;;;;12.68;3.13;;;15.80;99.90;;;;;;5010888;28;20609;-58
2022/10/02 10:15:04;;;;;;;15.52;2.20;;;15.90;99.90;;;;;;5007259;28;20033;-57
2022/10/02 10:18:00;;;;;;;16.08;3.55;;;15.90;99.90;;;;;;4896379;29;20090;-60
2022/10/02 10:20:50;;;;;;;17.40;2.97;;;15.60;99.90;;;;;;4920440;29;20058;-63
2022/10/02 10:23:35;;;;;;;12.15;2.38;;;15.50;99.90;;;;;;4996403;28;20092;-59
2022/10/02 10:26:27;;;;;;;19.40;2.55;;;15.70;99.90;;;;;;5003521;28;20395;-60
2022/10/02 10:29:20;;;;;;;11.80;2.30;;;15.70;99.90;;;;;;5005933;28;20045;-58
2022/10/02 10:32:05;;;;;;;13.30;2.63;;;15.80;99.90;;;;;;5004656;28;20492;-62
2022/10/02 10:34:36;;;;;;;13.88;3.03;;;16.10;99.90;;;;;;4989087;28;20049;-63
2022/10/02 10:40:31;;;;;;;18.45;3.13;;;16.20;99.90;;;;;;4999597;28;20058;-61
2022/10/02 10:43:21;;;;;;;16.08;3.08;;;16.40;99.90;;;;;;5005372;28;20095;-66
2022/10/02 10:46:06;;;;;;;12.73;2.85;;;16.60;99.90;;;;;;5003855;28;20124;-69
2022/10/02 10:48:46;;;;;;;15.75;3.35;;;16.80;99.90;;;;;;5006843;28;20485;-61
2022/10/02 10:51:29;;;;;;;13.45;3.42;;;16.70;99.90;;;;;;5005241;28;20046;-65
2022/10/02 10:54:16;;;;;;;16.08;3.85;;;16.40;99.90;;;;;;5007284;28;20445;-60
2022/10/02 10:56:49;;;;;;;15.85;2.78;;;16.10;99.90;;;;;;5003030;28;20103;-61
2022/10/02 10:59:56;;;;;;;11.95;3.33;;;16.00;99.90;;;;;;4997507;28;20100;-63
2022/10/02 11:02:53;;;;;;;16.75;3.33;;;16.10;99.90;;;;;;4949889;28;20045;-67
2022/10/02 11:05:56;;;;;;;16.77;3.53;;;16.20;99.90;;;;;;5004405;28;20124;-60
2022/10/02 11:09:09;;;;;;;14.63;3.45;;;16.30;99.90;;;;;;5026506;28;20120;-63
2022/10/02 11:12:15;;;;;;;16.25;3.35;;;16.40;99.90;;;;;;4998080;28;20404;-65
2022/10/02 11:14:56;;;;;;;12.55;3.20;;;16.30;99.90;;;;;;4921452;29;20119;-67
2022/10/02 11:18:01;;;;;;;18.90;3.10;;;16.40;99.90;;;;;;4915908;29;20088;-65
2022/10/02 11:20:46;;;;;;;14.60;2.95;;;16.30;99.90;;;;;;5003159;28;20061;-67
2022/10/02 11:23:30;;;;;;;17.77;3.38;;;16.30;99.90;;;;;;5006999;28;20404;-59
2022/10/02 11:26:01;;;;;;;19.63;3.15;;;16.30;99.90;;;;;;5025777;28;20048;-62
2022/10/02 11:29:05;;;;;;;16.73;2.90;;;16.50;99.90;;;;;;4996585;28;20492;-64
2022/10/02 11:31:49;;;;;;;16.33;2.70;;;16.70;99.90;;;;;;5021960;28;20416;-68
2022/10/02 11:34:24;;;;;;;13.07;2.75;;;16.60;99.90;;;;;;5001183;28;20041;-63
2022/10/02 11:37:12;;;;;;;15.43;3.47;;;16.40;99.90;;;;;;5020764;28;20111;-63
2022/10/02 11:40:02;;;;;;;14.55;2.90;;;16.50;99.90;;;;;;4996525;28;20136;-60
2022/10/02 11:42:54;;;;;;;14.18;2.53;;;16.70;99.90;;;;;;5001505;28;20509;-62
2022/10/02 11:45:55;;;;;;;16.33;2.92;;;16.80;96.60;;;;;;4999552;28;20684;-59
2022/10/02 11:48:55;;;;;;;13.13;3.10;;;16.70;93.50;;;;;;5008582;28;20041;-57
2022/10/02 11:51:31;;;;;;;9.82;2.42;;;16.60;98.40;;;;;;5006236;28;20085;-60
2022/10/02 11:54:36;;;;;;;9.00;2.55;;;16.60;96.50;;;;;;4996332;28;20042;-61
2022/10/02 11:57:22;;;;;;;14.70;2.70;;;16.50;97.10;;;;;;5007054;28;20042;-60
2022/10/02 12:00:13;;;;;;;13.10;2.33;;;16.60;99.90;;;;;;5000649;28;20100;-64
2022/10/02 12:02:57;;;;;;;13.70;2.78;;;16.70;99.30;;;;;;5014492;28;20518;-59
2022/10/02 12:05:34;;;;;;;11.80;2.53;;;16.90;99.90;;;;;;4996272;28;20045;-60
2022/10/02 12:08:08;;;;;;;11.35;2.65;;;17.00;99.90;;;;;;5007014;28;20053;-59
2022/10/02 12:10:47;;;;;;;14.57;2.38;;;16.90;94.80;;;;;;5004747;28;20056;-57
2022/10/02 12:13:45;;;;;;;9.55;3.00;;;16.90;96.90;;;;;;5015129;28;20572;-63
2022/10/02 12:16:33;;;;;;;10.25;2.45;;;16.90;96.70;;;;;;5014343;28;20083;-61
2022/10/02 12:19:39;;;;;;;10.50;3.28;;;16.90;96.00;;;;;;5034413;28;20064;-59
2022/10/02 12:28:21;;;;;;;16.60;2.97;;;16.60;99.10;;;;;;4994588;28;20467;-57
2022/10/02 12:31:01;;;;;;;16.25;3.10;;;16.40;99.40;;;;;;5015683;28;20057;-66
2022/10/02 12:33:31;;;;;;;16.92;3.28;;;16.20;99.00;;;;;;5007693;28;20056;-58
2022/10/02 12:36:42;;;;;;;10.13;2.83;;;16.30;99.90;;;;;;5007975;28;20111;-58
2022/10/02 12:39:35;;;;;;;12.10;2.15;;;16.40;99.70;;;;;;4982612;28;20136;-63
2022/10/02 12:42:15;;;;;;;11.48;2.55;;;16.70;99.90;;;;;;5009360;28;20049;-61
2022/10/02 12:44:46;;;;;;;10.82;2.90;;;16.90;96.30;;;;;;4990741;28;20404;-60
2022/10/02 12:47:34;;;;;;;9.32;2.75;;;16.90;94.10;;;;;;5009770;28;20132;-61
2022/10/02 12:50:03;;;;;;;18.48;3.63;;;16.80;93.80;;;;;;5025744;28;20119;-61
2022/10/02 12:53:03;;;;;;;12.82;3.33;;;16.60;96.80;;;;;;5027317;28;20393;-62
2022/10/02 12:55:53;;;;;;;12.13;3.15;;;16.70;96.20;;;;;;5002035;28;20049;-65
2022/10/02 12:58:31;;;;;;;;;;;16.80;93.80;;;;;;4990873;28;20515;-65
2022/10/02 13:01:18;;;;;;;18.88;4.00;;;16.80;95.50;;;;;;5014073;28;19925;-63
2022/10/02 13:03:54;;;;;;;12.25;2.75;;;16.90;99.70;;;;;;4995714;28;20132;-61
2022/10/02 13:06:48;;;;;;;7.30;2.42;;;17.10;96.30;;;;;;5010631;28;20132;-64
2022/10/02 13:09:14;;;;;;;21.30;3.20;;;17.20;97.70;;;;;;4999103;28;20399;-59
2022/10/02 13:11:58;;;;;;;12.77;3.17;;;17.20;99.90;;;;;;5017250;28;20054;-69
2022/10/02 13:14:38;;;;;;;13.25;3.53;;;17.10;97.20;;;;;;5007937;28;20203;-65
2022/10/02 13:17:09;;;;;;;14.75;4.25;;;17.00;93.50;;;;;;5008895;28;20114;-60
2022/10/02 13:19:41;;;;;;;16.25;3.80;;;16.60;92.40;;;;;;5010336;28;20052;-65
2022/10/02 13:22:44;;;;;;;24.77;4.60;;;16.50;96.10;;;;;;4994639;28;20534;-68
2022/10/02 13:25:20;;;;;;;13.48;2.78;;;16.60;95.80;;;;;;5001391;28;20122;-60
2022/10/02 13:28:22;;;;;;;15.07;3.80;;;16.70;96.80;;;;;;5006879;28;20053;-63
2022/10/02 13:30:53;;;;;;;14.43;3.60;;;16.90;94.90;;;;;;5024972;28;20555;-67
2022/10/02 13:33:46;;;;;;;11.75;3.05;;;16.90;91.30;;;;;;4997310;28;20374;-69
2022/10/02 13:36:28;;;;;;;17.50;2.85;;;16.70;91.50;;;;;;5006593;28;20049;-60
2022/10/02 13:39:09;;;;;;;20.10;3.78;;;16.80;98.80;;;;;;4992139;28;20055;-59
2022/10/02 13:42:17;;;;;;;15.95;3.47;;;16.70;94.60;;;;;;5008000;28;20100;-67
2022/10/02 13:44:51;;;;;;;17.80;3.65;;;16.70;99.60;;;;;;5010258;28;20064;-70
2022/10/02 13:47:25;;;;;;;19.10;3.60;;;16.50;97.00;;;;;;5014064;28;20519;-65
2022/10/02 13:50:22;;;;;;;15.18;2.13;;;16.60;99.40;;;;;;5025083;28;20172;-60
2022/10/02 13:53:15;;;;;;;15.05;2.83;;;16.70;99.80;;;;;;5010103;28;20057;-58
2022/10/02 13:55:47;;;;;;;30.27;5.05;;;16.80;95.60;;;;;;4980139;28;20076;-60
2022/10/02 13:58:29;;;;;;;17.83;4.82;;;16.50;94.60;;;;;;5015250;28;20049;-63
2022/10/02 14:01:11;;;;;;;13.27;2.60;;;16.20;98.10;;;;;;5007308;28;20041;-60
2022/10/02 14:03:51;;;;;;;18.35;2.95;;;15.90;99.90;;;;;;5021212;28;20033;-64
2022/10/02 14:06:37;;;;;;;15.15;2.90;;;15.70;99.90;;;;;;5021052;28;20053;-59